createdAt,value
2022-12-25T00:00:40.038Z,98969.00
2022-12-25T00:03:58.800Z,98966.73
2022-12-25T00:07:15.855Z,98980.07
2022-12-25T00:10:32.461Z,98985.19
2022-12-25T00:13:50.103Z,98994.50
2022-12-25T00:17:06.604Z,98984.66
2022-12-25T00:20:23.096Z,98993.00
2022-12-25T00:23:40.471Z,98995.72
2022-12-25T00:26:56.523Z,99000.67
2022-12-25T00:30:14.839Z,99013.80
2022-12-25T00:33:30.892Z,99006.02
2022-12-25T00:36:46.970Z,99005.58
2022-12-25T00:40:03.267Z,99016.44
2022-12-25T00:43:19.797Z,99006.11
2022-12-25T00:46:35.973Z,99015.91
2022-12-25T00:49:52.932Z,99021.33
2022-12-25T00:53:09.026Z,99015.20
2022-12-25T00:56:25.339Z,99025.48
2022-12-25T00:59:42.602Z,99035.79
2022-12-25T01:02:59.292Z,99041.75
2022-12-25T01:06:19.351Z,99054.66
2022-12-25T01:09:49.603Z,99059.92
2022-12-25T01:13:06.017Z,99057.05
2022-12-25T01:16:22.243Z,99058.17
2022-12-25T01:19:38.424Z,99063.44
2022-12-25T01:22:55.498Z,99070.22
2022-12-25T01:26:17.052Z,99076.30
2022-12-25T01:29:33.137Z,99078.23
2022-12-25T01:32:49.279Z,99081.53
2022-12-25T01:36:05.509Z,99084.27
2022-12-25T01:39:21.579Z,99088.16
2022-12-25T01:42:38.192Z,99088.46
2022-12-25T01:45:54.760Z,99088.16
2022-12-25T01:49:15.771Z,99090.36
2022-12-25T01:52:33.929Z,99081.09
2022-12-25T01:55:52.937Z,99071.84
2022-12-25T01:59:10.061Z,99078.11
2022-12-25T02:02:26.429Z,99081.25
2022-12-25T02:05:44.192Z,99078.03
2022-12-25T02:09:00.636Z,99096.75
2022-12-25T02:12:20.739Z,99087.57
2022-12-25T02:15:43.224Z,99093.88
2022-12-25T02:19:03.683Z,99095.00
2022-12-25T02:22:26.692Z,99100.35
2022-12-25T02:25:54.130Z,99112.28
2022-12-25T02:29:16.659Z,99108.64
2022-12-25T02:32:36.921Z,99112.13
2022-12-25T02:35:56.892Z,99111.28
2022-12-25T02:39:33.566Z,99122.36
2022-12-25T02:43:09.435Z,99124.75
2022-12-25T02:46:48.817Z,99117.85
2022-12-25T02:50:17.619Z,99115.22
2022-12-25T02:53:53.451Z,99125.91
2022-12-25T02:57:28.361Z,99133.67
2022-12-25T03:01:03.082Z,99142.42
2022-12-25T03:04:37.213Z,99140.36
2022-12-25T03:07:55.076Z,99138.98
2022-12-25T03:11:28.385Z,99140.63
2022-12-25T03:14:58.795Z,99146.19
2022-12-25T03:18:19.488Z,99146.17
2022-12-25T03:21:50.103Z,99145.77
2022-12-25T03:25:20.595Z,99148.00
2022-12-25T03:28:37.910Z,99145.09
2022-12-25T03:31:59.060Z,99140.39
2022-12-25T03:35:29.136Z,99144.53
2022-12-25T03:39:05.582Z,99150.91
2022-12-25T03:42:49.993Z,99151.62
2022-12-25T03:46:24.076Z,99153.55
2022-12-25T03:49:58.891Z,99146.77
2022-12-25T03:53:34.104Z,99152.17
2022-12-25T03:57:05.929Z,99152.88
2022-12-25T04:00:37.894Z,99152.03
2022-12-25T04:04:08.095Z,99139.73
2022-12-25T04:07:37.997Z,99133.35
2022-12-25T04:11:08.276Z,99131.28
2022-12-25T04:14:38.321Z,99150.25
2022-12-25T04:18:10.277Z,99156.48
2022-12-25T04:21:40.631Z,99156.07
2022-12-25T04:25:10.792Z,99162.70
2022-12-25T04:28:41.073Z,99157.73
2022-12-25T04:32:11.287Z,99158.41
2022-12-25T04:35:52.828Z,99164.37
2022-12-25T04:39:08.932Z,99175.73
2022-12-25T04:42:25.306Z,99171.13
2022-12-25T04:45:41.697Z,99180.67
2022-12-25T04:48:57.838Z,99187.58
2022-12-25T04:52:14.239Z,99188.83
2022-12-25T04:55:30.225Z,99186.76
2022-12-25T04:58:46.858Z,99190.79
2022-12-25T05:02:02.949Z,99198.52
2022-12-25T05:05:19.518Z,99203.49
2022-12-25T05:08:36.021Z,99204.79
2022-12-25T05:11:52.160Z,99197.99
2022-12-25T05:15:08.470Z,99196.88
2022-12-25T05:18:25.002Z,99194.81
2022-12-25T05:21:41.352Z,99192.75
2022-12-25T05:24:57.588Z,99197.05
2022-12-25T05:28:14.711Z,99200.48
2022-12-25T05:31:31.411Z,99203.67
2022-12-25T05:34:47.700Z,99196.32
2022-12-25T05:38:04.051Z,99200.91
2022-12-25T05:41:20.316Z,99202.41
2022-12-25T05:44:36.373Z,99206.31
2022-12-25T05:47:52.633Z,99202.58
2022-12-25T05:51:14.667Z,99215.44
2022-12-25T05:54:31.034Z,99222.22
2022-12-25T05:57:47.297Z,99228.04
2022-12-25T06:01:03.855Z,99233.45
2022-12-25T06:04:20.036Z,99238.42
2022-12-25T06:07:36.475Z,99248.95
2022-12-25T06:10:52.650Z,99256.87
2022-12-25T06:14:08.863Z,99253.69
2022-12-25T06:17:25.038Z,99252.58
2022-12-25T06:20:41.526Z,99260.21
2022-12-25T06:23:57.939Z,99267.00
2022-12-25T06:27:14.207Z,99268.22
2022-12-25T06:30:30.209Z,99261.84
2022-12-25T06:33:47.203Z,99268.92
2022-12-25T06:37:03.340Z,99275.16
2022-12-25T06:40:21.341Z,99276.12
2022-12-25T06:43:37.379Z,99273.48
2022-12-25T06:46:53.603Z,99276.82
2022-12-25T06:50:10.162Z,99275.45
2022-12-25T06:53:32.285Z,99282.35
2022-12-25T06:56:47.557Z,99299.81
2022-12-25T07:00:04.383Z,99303.97
2022-12-25T07:03:24.970Z,99323.09
2022-12-25T07:06:41.245Z,99315.77
2022-12-25T07:09:57.331Z,99316.47
2022-12-25T07:13:13.465Z,99337.23
2022-12-25T07:16:30.795Z,99341.54
2022-12-25T07:19:47.132Z,99346.52
2022-12-25T07:23:03.202Z,99354.01
2022-12-25T07:26:20.537Z,99356.38
2022-12-25T07:29:36.650Z,99360.80
2022-12-25T07:32:53.307Z,99366.63
2022-12-25T07:36:13.068Z,99378.68
2022-12-25T07:39:28.421Z,99381.77
2022-12-25T07:42:44.333Z,99389.41
2022-12-25T07:46:06.261Z,99394.38
2022-12-25T07:49:23.533Z,99400.06
2022-12-25T07:52:43.487Z,99404.11
2022-12-25T07:56:05.956Z,99404.52
2022-12-25T07:59:22.168Z,99417.84
2022-12-25T08:02:38.641Z,99417.55
2022-12-25T08:05:55.027Z,99416.44
2022-12-25T08:09:16.477Z,99413.24
2022-12-25T08:12:32.535Z,99412.28
2022-12-25T08:15:49.342Z,99414.65
2022-12-25T08:19:05.420Z,99410.76
2022-12-25T08:22:21.670Z,99414.06
2022-12-25T08:25:38.586Z,99416.14
2022-12-25T08:28:55.663Z,99419.34
2022-12-25T08:32:11.818Z,99423.50
2022-12-25T08:35:28.298Z,99414.63
2022-12-25T08:38:44.774Z,99424.03
2022-12-25T08:42:01.015Z,99419.27
2022-12-25T08:45:18.993Z,99417.52
2022-12-25T08:48:35.569Z,99414.58
2022-12-25T08:51:53.749Z,99415.09
2022-12-25T08:55:10.259Z,99410.66
2022-12-25T08:58:26.329Z,99410.48
2022-12-25T09:01:42.570Z,99406.84
2022-12-25T09:04:58.811Z,99405.33
2022-12-25T09:08:15.959Z,99399.23
2022-12-25T09:11:32.241Z,99416.80
2022-12-25T09:14:48.974Z,99433.19
2022-12-25T09:18:05.318Z,99444.73
2022-12-25T09:21:23.585Z,99453.19
2022-12-25T09:24:40.067Z,99446.94
2022-12-25T09:27:56.229Z,99454.78
2022-12-25T09:31:13.718Z,99462.98
2022-12-25T09:34:29.877Z,99452.58
2022-12-25T09:37:46.016Z,99453.86
2022-12-25T09:41:10.979Z,99461.28
2022-12-25T09:44:31.526Z,99457.25
2022-12-25T09:47:51.848Z,99458.38
2022-12-25T09:51:12.216Z,99462.80
2022-12-25T09:54:34.275Z,99467.88
2022-12-25T09:57:50.661Z,99469.20
2022-12-25T10:01:12.099Z,99466.50
2022-12-25T10:04:41.984Z,99469.37
2022-12-25T10:08:04.241Z,99467.64
2022-12-25T10:11:29.985Z,99472.97
2022-12-25T10:14:51.795Z,99469.88
2022-12-25T10:18:55.163Z,99484.82
2022-12-25T10:22:17.283Z,99478.07
2022-12-25T10:25:34.712Z,99477.59
2022-12-25T10:28:55.949Z,99471.24
2022-12-25T10:32:12.472Z,99467.58
2022-12-25T10:35:33.614Z,99466.59
2022-12-25T10:38:49.813Z,99463.04
2022-12-25T10:42:32.742Z,99458.76
2022-12-25T10:45:57.554Z,99453.72
2022-12-25T10:49:19.120Z,99440.89
2022-12-25T10:52:37.058Z,99445.09
2022-12-25T10:56:02.010Z,99440.66
2022-12-25T10:59:20.330Z,99437.84
2022-12-25T11:02:40.784Z,99441.82
2022-12-25T11:05:59.548Z,99429.09
2022-12-25T11:09:23.452Z,99410.41
2022-12-25T11:12:43.984Z,99403.95
2022-12-25T11:16:11.345Z,99408.11
2022-12-25T11:19:58.881Z,99410.59
2022-12-25T11:23:24.101Z,99401.31
2022-12-25T11:26:53.613Z,99401.31
2022-12-25T11:30:16.056Z,99397.34
2022-12-25T11:33:37.036Z,99395.37
2022-12-25T11:36:56.369Z,99396.02
2022-12-25T11:40:21.481Z,99396.86
2022-12-25T11:43:41.711Z,99399.09
2022-12-25T11:46:58.682Z,99398.24
2022-12-25T11:50:24.296Z,99394.44
2022-12-25T11:53:45.083Z,99396.39
2022-12-25T11:57:04.171Z,99403.23
2022-12-25T12:00:25.401Z,99400.25
2022-12-25T12:03:45.809Z,99402.90
2022-12-25T12:07:07.038Z,99402.89
2022-12-25T12:10:26.994Z,99401.53
2022-12-25T12:13:50.531Z,99401.86
2022-12-25T12:17:07.592Z,99396.73
2022-12-25T12:20:36.381Z,99395.72
2022-12-25T12:24:03.120Z,99389.44
2022-12-25T12:27:30.576Z,99377.00
2022-12-25T12:30:47.137Z,99380.47
2022-12-25T12:34:06.565Z,99392.38
2022-12-25T12:37:28.019Z,99396.68
2022-12-25T12:40:48.571Z,99404.79
2022-12-25T12:44:09.416Z,99391.62
2022-12-25T12:47:44.807Z,99391.97
2022-12-25T12:51:12.968Z,99389.33
2022-12-25T12:54:32.656Z,99393.28
2022-12-25T12:57:49.356Z,99391.32
2022-12-25T13:01:22.886Z,99388.16
2022-12-25T13:05:04.876Z,99379.09
2022-12-25T13:08:34.317Z,99374.42
2022-12-25T13:11:52.352Z,99370.38
2022-12-25T13:15:09.307Z,99375.96
2022-12-25T13:18:26.288Z,99377.63
2022-12-25T13:21:43.581Z,99379.91
2022-12-25T13:25:08.509Z,99378.41
2022-12-25T13:28:26.855Z,99380.52
2022-12-25T13:31:45.556Z,99375.23
2022-12-25T13:35:03.044Z,99384.47
2022-12-25T13:38:24.908Z,99380.38
2022-12-25T13:42:02.283Z,99375.98
2022-12-25T13:45:34.509Z,99374.33
2022-12-25T13:48:50.814Z,99378.11
2022-12-25T13:52:17.401Z,99378.81
2022-12-25T13:55:35.830Z,99372.91
2022-12-25T13:58:54.542Z,99381.00
2022-12-25T14:02:11.598Z,99371.38
2022-12-25T14:05:42.856Z,99368.93
2022-12-25T14:08:58.603Z,99376.89
2022-12-25T14:12:19.337Z,99380.55
2022-12-25T14:15:37.170Z,99367.46
2022-12-25T14:19:03.395Z,99376.92
2022-12-25T14:22:26.608Z,99371.83
2022-12-25T14:25:48.650Z,99366.77
2022-12-25T14:29:16.836Z,99354.31
2022-12-25T14:32:32.906Z,99357.66
2022-12-25T14:35:49.456Z,99360.70
2022-12-25T14:39:12.422Z,99362.11
2022-12-25T14:42:31.714Z,99372.86
2022-12-25T14:45:45.920Z,99379.94
2022-12-25T14:49:11.712Z,99373.25
2022-12-25T14:52:33.741Z,99375.01
2022-12-25T14:55:53.335Z,99364.31
2022-12-25T14:59:10.938Z,99365.81
2022-12-25T15:02:28.404Z,99359.41
2022-12-25T15:05:47.184Z,99360.12
2022-12-25T15:09:10.730Z,99353.72
2022-12-25T15:12:27.107Z,99344.50
2022-12-25T15:15:44.413Z,99347.95
2022-12-25T15:19:02.753Z,99351.23
2022-12-25T15:22:22.323Z,99358.41
2022-12-25T15:25:38.743Z,99361.97
2022-12-25T15:28:55.044Z,99359.86
2022-12-25T15:32:11.663Z,99374.16
2022-12-25T15:35:29.851Z,99379.93
2022-12-25T15:38:46.109Z,99382.14
2022-12-25T15:42:17.696Z,99384.66
2022-12-25T15:45:36.421Z,99382.27
2022-12-25T15:48:52.640Z,99389.99
2022-12-25T15:52:08.945Z,99390.30
2022-12-25T15:55:26.052Z,99387.46
2022-12-25T15:58:42.141Z,99384.39
2022-12-25T16:02:01.359Z,99374.53
2022-12-25T16:05:16.259Z,99373.69
2022-12-25T16:08:33.510Z,99355.92
2022-12-25T16:11:51.147Z,99359.94
2022-12-25T16:15:07.559Z,99360.44
2022-12-25T16:18:24.765Z,99364.08
2022-12-25T16:21:46.121Z,99355.10
2022-12-25T16:25:03.102Z,99336.69
2022-12-25T16:28:21.190Z,99341.11
2022-12-25T16:31:37.780Z,99338.66
2022-12-25T16:34:58.013Z,99331.02
2022-12-25T16:38:14.181Z,99330.91
2022-12-25T16:41:30.465Z,99331.47
2022-12-25T16:44:47.309Z,99320.23
2022-12-25T16:48:03.508Z,99316.34
2022-12-25T16:51:22.179Z,99328.63
2022-12-25T16:54:38.709Z,99340.46
2022-12-25T16:57:55.110Z,99349.34
2022-12-25T17:01:17.495Z,99349.16
2022-12-25T17:04:34.817Z,99344.04
2022-12-25T17:07:51.355Z,99344.98
2022-12-25T17:11:11.149Z,99326.73
2022-12-25T17:14:27.787Z,99319.31
2022-12-25T17:17:44.035Z,99319.38
2022-12-25T17:21:03.632Z,99324.82
2022-12-25T17:24:20.799Z,99311.88
2022-12-25T17:27:36.925Z,99307.20
2022-12-25T17:30:53.188Z,99300.41
2022-12-25T17:34:11.357Z,99300.92
2022-12-25T17:37:27.874Z,99287.42
2022-12-25T17:40:43.976Z,99296.48
2022-12-25T17:44:00.361Z,99290.28
2022-12-25T17:47:16.275Z,99283.98
2022-12-25T17:50:37.389Z,99278.64
2022-12-25T17:53:53.969Z,99271.91
2022-12-25T17:57:09.942Z,99265.41
2022-12-25T18:00:27.740Z,99253.13
2022-12-25T18:03:44.240Z,99261.25
2022-12-25T18:07:00.550Z,99261.96
2022-12-25T18:10:19.835Z,99246.34
2022-12-25T18:13:41.317Z,99252.41
2022-12-25T18:16:57.982Z,99250.50
2022-12-25T18:20:16.982Z,99261.39
2022-12-25T18:24:20.774Z,99259.94
2022-12-25T18:27:56.181Z,99271.66
2022-12-25T18:31:22.079Z,99270.06
2022-12-25T18:34:38.740Z,99263.33
2022-12-25T18:37:56.731Z,99272.33
2022-12-25T18:41:15.280Z,99268.31
2022-12-25T18:44:41.513Z,99268.17
2022-12-25T18:48:34.262Z,99275.94
2022-12-25T18:52:50.026Z,99274.93
2022-12-25T18:55:29.296Z,99268.97
2022-12-25T18:58:50.296Z,99262.76
2022-12-25T19:02:06.803Z,99256.22
2022-12-25T19:05:27.322Z,99259.73
2022-12-25T19:08:44.129Z,99256.35
2022-12-25T19:12:03.125Z,99263.95
2022-12-25T19:15:20.768Z,99258.45
2022-12-25T19:18:37.476Z,99254.98
2022-12-25T19:21:59.528Z,99249.43
2022-12-25T19:25:19.454Z,99240.21
2022-12-25T19:28:33.656Z,99233.53
2022-12-25T19:31:49.931Z,99244.04
2022-12-25T19:35:07.226Z,99246.23
2022-12-25T19:38:23.829Z,99241.25
2022-12-25T19:41:40.452Z,99233.75
2022-12-25T19:44:56.695Z,99242.96
2022-12-25T19:48:14.014Z,99240.03
2022-12-25T19:51:35.556Z,99239.01
2022-12-25T19:54:53.405Z,99241.91
2022-12-25T19:58:10.989Z,99235.94
2022-12-25T20:01:30.895Z,99240.23
2022-12-25T20:04:47.509Z,99244.53
2022-12-25T20:08:17.650Z,99244.25
2022-12-25T20:12:03.048Z,99222.95
2022-12-25T20:17:15.583Z,99212.55
2022-12-25T20:19:08.702Z,99201.17
2022-12-25T20:22:24.846Z,99206.42
2022-12-25T20:25:41.427Z,99201.50
2022-12-25T20:28:58.051Z,99194.77
2022-12-25T20:32:15.001Z,99189.00
2022-12-25T20:35:34.373Z,99183.52
2022-12-25T20:38:50.742Z,99175.27
2022-12-25T20:42:06.994Z,99175.48
2022-12-25T20:45:23.889Z,99164.36
2022-12-25T20:48:40.732Z,99166.75
2022-12-25T20:52:03.020Z,99167.06
2022-12-25T20:55:21.048Z,99164.44
2022-12-25T20:58:40.291Z,99165.89
2022-12-25T21:01:57.575Z,99162.19
2022-12-25T21:05:16.907Z,99165.89
2022-12-25T21:08:34.669Z,99153.77
2022-12-25T21:11:50.901Z,99149.77
2022-12-25T21:15:14.983Z,99150.62
2022-12-25T21:18:29.117Z,99146.20
2022-12-25T21:21:44.167Z,99143.44
2022-12-25T21:25:02.071Z,99141.08
2022-12-25T21:28:35.147Z,99133.19
2022-12-25T21:32:05.506Z,99130.84
2022-12-25T21:35:22.238Z,99110.59
2022-12-25T21:38:38.446Z,99096.69
2022-12-25T21:41:57.387Z,99102.38
2022-12-25T21:45:15.466Z,99112.86
2022-12-25T21:48:32.923Z,99113.89
2022-12-25T21:52:02.981Z,99106.62
2022-12-25T21:55:19.891Z,99090.53
2022-12-25T21:58:36.363Z,99082.19
2022-12-25T22:01:54.001Z,99078.11
2022-12-25T22:05:12.840Z,99078.70
2022-12-25T22:08:28.852Z,99076.90
2022-12-25T22:11:59.029Z,99078.30
2022-12-25T22:15:20.683Z,99100.75
2022-12-25T22:18:51.034Z,99097.34
2022-12-25T22:22:07.224Z,99090.61
2022-12-25T22:25:24.910Z,99087.03
2022-12-25T22:28:41.022Z,99090.04
2022-12-25T22:31:57.614Z,99081.92
2022-12-25T22:35:17.404Z,99086.34
2022-12-25T22:38:33.643Z,99071.58
2022-12-25T22:41:50.318Z,99067.78
2022-12-25T22:45:06.568Z,99062.06
2022-12-25T22:48:22.885Z,99053.09
2022-12-25T22:51:39.122Z,99037.15
2022-12-25T22:54:55.555Z,99039.14
2022-12-25T22:58:11.781Z,99034.85
2022-12-25T23:01:29.498Z,99029.88
2022-12-25T23:04:46.172Z,99031.65
2022-12-25T23:08:02.337Z,99032.82
2022-12-25T23:11:18.503Z,99039.23
2022-12-25T23:14:44.223Z,99016.69
2022-12-25T23:18:13.713Z,99011.68
2022-12-25T23:21:41.656Z,99009.54
2022-12-25T23:25:11.826Z,99015.02
2022-12-25T23:28:38.485Z,99010.41
2022-12-25T23:31:54.802Z,99006.80
2022-12-25T23:35:12.714Z,98996.33
2022-12-25T23:38:28.878Z,98987.76
2022-12-25T23:41:45.015Z,98997.73
2022-12-25T23:45:01.242Z,99007.08
2022-12-25T23:48:20.104Z,99004.41
2022-12-25T23:51:36.363Z,99004.09
2022-12-25T23:54:52.492Z,98987.55
2022-12-25T23:58:08.926Z,98983.42
